NATURA VA

 METAR AND TAF INFORMATION
METAR FOR LELO
ADDS - METARS form results

(1605 UTC 26 March 2019)
Data provider http://aviationweather.gov/metar/data/
 
METAR text: LELO 261600Z 02006KT 300V080 CAVOK 18/M12 Q1022
Conditions at: LELO (LOGRONO/AGONCILL, ES) observed 1600 UTC 26 March 2019
Temperature: 18.0°C (64°F)
Dewpoint: -12.0°C (10°F) [RH = 12%]
Pressure (altimeter): 30.18 inches Hg (1022.0 mb)
Winds: from the NNE (20 degrees) at 7 MPH (6 knots; 3.1 m/s)
Visibility: 6 or more miles (10+ km)
Ceiling: ceiling and visibility are OK
Clouds: unknown
Weather: no significant weather observed at this time

METAR text: LELO 261530Z 03009G19KT 330V100 CAVOK 19/M12 Q1022
Conditions at: LELO (LOGRONO/AGONCILL, ES) observed 1530 UTC 26 March 2019
Temperature: 19.0°C (66°F)
Dewpoint: -12.0°C (10°F) [RH = 11%]
Pressure (altimeter): 30.18 inches Hg (1022.0 mb)
Winds: from the NNE (30 degrees) at 10 MPH (9 knots; 4.6 m/s)
gusting to 22 MPH (19 knots; 9.8 m/s)
Visibility: 6 or more miles (10+ km)
Ceiling: ceiling and visibility are OK
Clouds: unknown
Weather: no significant weather observed at this time

Forecast for: LELO (LOGRONO/AGONCILL, ES)
Text: TAF LELO 261400Z 2615/2624 VRB05KT CAVOK
Forecast period: 1500 UTC 26 March 2019 to 0000 UTC 27 March 2019
Forecast type: FROM: standard forecast or significant change
Winds: variable direction winds at 6 MPH (5 knots; 2.6 m/s)
Visibility: 6 or more miles 10+ km)
Ceiling: unknown
Clouds: missing
Weather: NSW  (no significant weather)
Text: TEMPO 2615/2619 04010G20KT
Forecast period: 1500 to 1900 UTC 26 March 2019
Forecast type: TEMPORARY: The following changes expected for less than half the time period
Winds: from the NE (40 degrees) at 12 MPH (10 knots; 5.1 m/s)
gusting to 23 MPH (20 knots; 10.3 m/s)
Visibility: missing
Ceiling: unknown
Clouds: missing
Weather: no significant weather forecast for this period

 AIRPORT MAP

 RUNWAY INFORMATION

 AIRPORT FREQUENCIES

 AIRPORT NEAR NAVIGATION AIDS
Type NDB Name Logrono Frequency 399 KHZ



Powered by Virtual Airlines Manager [v2.6.2]